createdAt,value
2019-04-13T00:01:51.963Z,8.60
2019-04-13T00:04:29.575Z,8.57
2019-04-13T00:06:56.769Z,8.27
2019-04-13T00:09:24.313Z,9.10
2019-04-13T00:12:17.174Z,8.53
2019-04-13T00:14:46.341Z,8.33
2019-04-13T00:17:13.921Z,8.30
2019-04-13T00:19:41.554Z,8.30
2019-04-13T00:22:09.087Z,8.60
2019-04-13T00:24:36.798Z,8.17
2019-04-13T00:27:04.401Z,8.30
2019-04-13T00:29:31.977Z,8.40
2019-04-13T00:31:59.557Z,8.10
2019-04-13T00:34:27.149Z,7.97
2019-04-13T00:36:54.724Z,8.83
2019-04-13T00:39:22.336Z,9.17
2019-04-13T00:41:49.820Z,8.37
2019-04-13T00:44:17.427Z,8.17
2019-04-13T00:46:46.047Z,8.57
2019-04-13T00:49:13.647Z,8.20
2019-04-13T00:51:41.265Z,7.53
2019-04-13T00:54:11.390Z,8.10
2019-04-13T00:56:38.978Z,7.63
2019-04-13T00:59:06.584Z,7.80
2019-04-13T01:01:34.087Z,7.87
2019-04-13T01:04:05.575Z,8.30
2019-04-13T01:06:33.178Z,7.57
2019-04-13T01:09:04.820Z,7.70
2019-04-13T01:11:32.464Z,8.20
2019-04-13T01:14:00.078Z,7.60
2019-04-13T01:16:32.338Z,7.17
2019-04-13T01:18:59.971Z,7.87
2019-04-13T01:21:27.700Z,7.83
2019-04-13T01:23:55.314Z,8.40
2019-04-13T01:26:22.929Z,7.93
2019-04-13T01:28:50.556Z,7.97
2019-04-13T01:31:18.099Z,8.47
2019-04-13T01:33:46.985Z,7.43
2019-04-13T01:36:14.510Z,8.60
2019-04-13T01:38:42.098Z,7.50
2019-04-13T01:41:09.641Z,9.23
2019-04-13T01:43:37.250Z,8.77
2019-04-13T01:46:07.671Z,9.00
2019-04-13T01:48:35.273Z,8.60
2019-04-13T01:51:02.947Z,9.30
2019-04-13T01:53:30.520Z,8.47
2019-04-13T01:55:58.151Z,8.70
2019-04-13T01:58:25.847Z,8.63
2019-04-13T02:01:11.491Z,8.50
2019-04-13T02:03:43.106Z,7.60
2019-04-13T02:06:10.709Z,8.80
2019-04-13T02:08:53.262Z,8.37
2019-04-13T02:11:25.179Z,8.97
2019-04-13T02:13:52.841Z,7.70
2019-04-13T02:16:29.043Z,8.17
2019-04-13T02:18:56.631Z,8.23
2019-04-13T02:21:24.364Z,8.57
2019-04-13T02:23:51.962Z,7.87
2019-04-13T02:26:20.793Z,8.93
2019-04-13T02:28:48.379Z,8.73
2019-04-13T02:31:15.891Z,7.93
2019-04-13T02:33:43.466Z,9.17
2019-04-13T02:36:10.988Z,8.40
2019-04-13T02:38:38.599Z,9.43
2019-04-13T02:41:06.195Z,9.17
2019-04-13T02:43:33.830Z,9.17
2019-04-13T02:46:01.391Z,9.57
2019-04-13T02:48:28.885Z,9.50
2019-04-13T02:50:56.458Z,9.30
2019-04-13T02:53:24.084Z,8.97
2019-04-13T02:55:54.682Z,9.20
2019-04-13T02:58:22.275Z,9.57
2019-04-13T03:00:49.777Z,10.00
2019-04-13T03:03:17.366Z,9.77
2019-04-13T03:05:47.446Z,9.50
2019-04-13T03:08:18.340Z,10.00
2019-04-13T03:10:48.507Z,9.37
2019-04-13T03:13:16.266Z,9.63
2019-04-13T03:16:03.505Z,9.87
2019-04-13T03:18:49.339Z,9.47
2019-04-13T03:21:16.997Z,9.73
2019-04-13T03:23:44.607Z,10.00
2019-04-13T03:26:14.240Z,10.57
2019-04-13T03:28:41.773Z,10.43
2019-04-13T03:31:09.258Z,10.33
2019-04-13T03:33:36.842Z,9.70
2019-04-13T03:36:04.456Z,10.47
2019-04-13T03:38:32.139Z,10.40
2019-04-13T03:40:59.698Z,10.30
2019-04-13T03:43:27.258Z,10.03
2019-04-13T03:45:55.986Z,11.33
2019-04-13T03:48:23.603Z,10.30
2019-04-13T03:50:51.101Z,10.60
2019-04-13T03:53:18.621Z,10.60
2019-04-13T03:55:46.210Z,10.73
2019-04-13T03:58:13.818Z,11.10
2019-04-13T04:00:41.319Z,10.87
2019-04-13T04:03:08.893Z,10.90
2019-04-13T04:05:36.385Z,11.60
2019-04-13T04:08:03.989Z,10.77
2019-04-13T04:10:31.502Z,11.40
2019-04-13T04:12:59.117Z,11.70
2019-04-13T04:15:26.932Z,11.90
2019-04-13T04:17:54.564Z,11.80
2019-04-13T04:20:22.133Z,11.83
2019-04-13T04:22:54.685Z,11.97
2019-04-13T04:25:23.277Z,11.53
2019-04-13T04:27:50.790Z,12.80
2019-04-13T04:30:18.268Z,12.60
2019-04-13T04:32:45.862Z,12.07
2019-04-13T04:35:13.358Z,12.47
2019-04-13T04:37:40.986Z,12.53
2019-04-13T04:40:08.611Z,12.63
2019-04-13T04:42:39.062Z,12.80
2019-04-13T04:45:06.674Z,12.60
2019-04-13T04:47:36.093Z,12.73
2019-04-13T04:50:04.327Z,12.33
2019-04-13T04:52:32.041Z,12.90
2019-04-13T04:54:59.625Z,13.43
2019-04-13T04:57:27.210Z,13.67
2019-04-13T04:59:54.727Z,12.87
2019-04-13T05:02:22.346Z,12.90
2019-04-13T05:04:56.018Z,13.27
2019-04-13T05:07:23.664Z,13.90
2019-04-13T05:09:51.201Z,14.20
2019-04-13T05:12:18.812Z,13.90
2019-04-13T05:14:48.770Z,13.73
2019-04-13T05:17:17.426Z,14.53
2019-04-13T05:19:46.915Z,14.37
2019-04-13T05:22:25.616Z,14.10
2019-04-13T05:24:46.404Z,14.60
2019-04-13T05:27:13.998Z,14.57
2019-04-13T05:29:41.622Z,14.40
2019-04-13T05:32:11.015Z,14.83
2019-04-13T05:34:40.802Z,15.23
2019-04-13T05:37:08.307Z,14.77
2019-04-13T05:39:35.910Z,14.80
2019-04-13T05:42:06.501Z,15.53
2019-04-13T05:44:35.320Z,15.67
2019-04-13T05:47:02.901Z,14.93
2019-04-13T05:49:30.490Z,14.73
2019-04-13T05:51:58.068Z,16.17
2019-04-13T05:54:25.662Z,14.97
2019-04-13T05:56:53.286Z,16.00
2019-04-13T05:59:23.264Z,14.83
2019-04-13T06:01:50.835Z,15.43
2019-04-13T06:04:21.180Z,15.93
2019-04-13T06:06:59.413Z,15.93
2019-04-13T06:09:20.210Z,15.60
2019-04-13T06:11:47.798Z,16.17
2019-04-13T06:14:15.429Z,16.93
2019-04-13T06:16:43.084Z,17.07
2019-04-13T06:19:10.653Z,16.50
2019-04-13T06:21:40.488Z,16.53
2019-04-13T06:24:08.688Z,16.33
2019-04-13T06:26:41.366Z,16.40
2019-04-13T06:29:09.537Z,15.97
2019-04-13T06:32:09.258Z,15.27
2019-04-13T06:34:56.599Z,15.23
2019-04-13T06:37:30.135Z,16.23
2019-04-13T06:39:57.643Z,15.07
2019-04-13T06:42:25.268Z,15.70
2019-04-13T06:44:52.910Z,14.83
2019-04-13T06:47:24.863Z,15.00
2019-04-13T06:49:54.301Z,16.87
2019-04-13T06:52:24.823Z,14.37
2019-04-13T06:54:52.299Z,15.50
2019-04-13T06:57:19.887Z,14.00
2019-04-13T06:59:47.376Z,14.83
2019-04-13T07:02:14.872Z,14.20
2019-04-13T07:04:45.098Z,15.27
2019-04-13T07:07:45.726Z,13.93
2019-04-13T07:10:30.871Z,14.33
2019-04-13T07:13:01.459Z,15.77
2019-04-13T07:15:40.354Z,13.33
2019-04-13T07:17:59.647Z,13.47
2019-04-13T07:20:27.239Z,14.53
2019-04-13T07:22:54.779Z,13.53
2019-04-13T07:25:33.927Z,13.23
2019-04-13T07:28:05.332Z,15.03
2019-04-13T07:30:34.645Z,13.53
2019-04-13T07:33:06.483Z,13.77
2019-04-13T07:35:38.490Z,13.47
2019-04-13T07:38:13.185Z,12.80
2019-04-13T07:40:45.765Z,13.70
2019-04-13T07:43:14.382Z,13.00
2019-04-13T07:46:10.180Z,13.30
2019-04-13T07:48:47.332Z,12.40
2019-04-13T07:51:34.265Z,11.67
2019-04-13T07:54:07.790Z,12.73
2019-04-13T07:56:40.732Z,12.57
2019-04-13T07:59:08.339Z,12.23
2019-04-13T08:01:36.277Z,11.87
2019-04-13T08:04:06.857Z,11.97
2019-04-13T08:06:36.677Z,11.43
2019-04-13T08:09:05.932Z,11.17
2019-04-13T08:11:33.542Z,10.90
2019-04-13T08:14:04.811Z,10.60
2019-04-13T08:16:35.259Z,11.00
2019-04-13T08:19:15.027Z,10.40
2019-04-13T08:21:44.313Z,11.63
2019-04-13T08:24:11.957Z,10.10
2019-04-13T08:26:39.500Z,9.63
2019-04-13T08:29:11.940Z,9.63
2019-04-13T08:31:39.776Z,9.20
2019-04-13T08:34:08.746Z,9.47
2019-04-13T08:36:39.884Z,8.70
2019-04-13T08:39:14.313Z,8.67
2019-04-13T08:41:51.212Z,9.37
2019-04-13T08:44:18.459Z,9.10
2019-04-13T08:46:53.332Z,9.43
2019-04-13T08:49:20.980Z,8.90
2019-04-13T08:51:53.141Z,8.90
2019-04-13T08:54:20.800Z,8.30
2019-04-13T08:56:50.702Z,8.37
2019-04-13T08:59:25.475Z,7.93
2019-04-13T09:01:54.307Z,8.13
2019-04-13T09:04:26.403Z,6.53
2019-04-13T09:07:00.065Z,6.17
2019-04-13T09:09:27.765Z,6.27
2019-04-13T09:12:06.847Z,6.27
2019-04-13T09:14:31.820Z,6.17
2019-04-13T09:17:00.061Z,6.63
2019-04-13T09:19:46.624Z,6.87
2019-04-13T09:22:20.015Z,6.90
2019-04-13T09:24:50.465Z,6.83
2019-04-13T09:27:23.796Z,6.27
2019-04-13T09:29:57.840Z,7.17
2019-04-13T09:32:34.528Z,6.43
2019-04-13T09:35:17.275Z,6.70
2019-04-13T09:37:52.314Z,6.77
2019-04-13T09:40:23.584Z,7.10
2019-04-13T09:42:54.424Z,7.20
2019-04-13T09:45:23.889Z,6.73
2019-04-13T09:47:51.508Z,6.53
2019-04-13T09:50:21.988Z,6.37
2019-04-13T09:52:51.027Z,6.40
2019-04-13T09:55:21.631Z,7.13
2019-04-13T09:57:51.964Z,6.40
2019-04-13T10:00:19.812Z,6.37
2019-04-13T10:02:48.719Z,6.33
2019-04-13T10:05:19.883Z,5.93
2019-04-13T10:07:47.471Z,6.00
2019-04-13T10:10:15.134Z,6.23
2019-04-13T10:13:05.093Z,5.67
2019-04-13T10:15:57.575Z,6.00
2019-04-13T10:18:31.403Z,5.60
2019-04-13T10:21:03.627Z,5.87
2019-04-13T10:23:34.155Z,6.00
2019-04-13T10:26:05.859Z,6.00
2019-04-13T10:28:37.508Z,6.00
2019-04-13T10:31:08.003Z,5.60
2019-04-13T10:33:42.289Z,6.50
2019-04-13T10:36:12.105Z,6.13
2019-04-13T10:38:39.665Z,5.83
2019-04-13T10:41:09.539Z,6.10
2019-04-13T10:43:38.466Z,6.40
2019-04-13T10:46:38.681Z,6.00
2019-04-13T10:49:24.312Z,5.77
2019-04-13T10:52:02.171Z,5.90
2019-04-13T10:54:29.930Z,5.97
2019-04-13T10:56:59.550Z,6.07
2019-04-13T10:59:27.143Z,6.00
2019-04-13T11:01:54.771Z,5.57
2019-04-13T11:04:22.426Z,5.63
2019-04-13T11:06:53.082Z,6.20
2019-04-13T11:09:21.903Z,6.03
2019-04-13T11:11:53.897Z,5.90
2019-04-13T11:14:22.585Z,6.00
2019-04-13T11:16:58.021Z,5.83
2019-04-13T11:19:26.386Z,6.23
2019-04-13T11:21:54.046Z,5.60
2019-04-13T11:24:22.653Z,5.90
2019-04-13T11:26:53.010Z,5.50
2019-04-13T11:29:20.654Z,6.03
2019-04-13T11:31:55.572Z,6.10
2019-04-13T11:34:31.798Z,5.93
2019-04-13T11:37:02.424Z,5.20
2019-04-13T11:39:34.302Z,6.20
2019-04-13T11:42:21.980Z,5.67
2019-04-13T11:45:12.020Z,5.33
2019-04-13T11:47:54.253Z,5.77
2019-04-13T11:50:29.753Z,6.13
2019-04-13T11:52:58.216Z,5.40
2019-04-13T11:55:28.746Z,5.47
2019-04-13T11:58:02.343Z,5.70
2019-04-13T12:01:06.915Z,5.40
2019-04-13T12:03:51.064Z,5.57
2019-04-13T12:06:44.042Z,5.17
2019-04-13T12:09:21.236Z,5.70
2019-04-13T12:12:20.376Z,5.90
2019-04-13T12:15:16.329Z,5.00
2019-04-13T12:17:55.992Z,5.53
2019-04-13T12:20:32.156Z,5.50
2019-04-13T12:23:05.275Z,5.13
2019-04-13T12:25:37.176Z,5.63
2019-04-13T12:28:13.900Z,5.13
2019-04-13T12:30:45.510Z,5.60
2019-04-13T12:33:17.111Z,4.80
2019-04-13T12:35:50.286Z,5.20
2019-04-13T12:38:19.802Z,5.10
2019-04-13T12:41:09.163Z,5.47
2019-04-13T12:43:37.010Z,5.47
2019-04-13T12:46:06.027Z,10.23
2019-04-13T12:48:33.659Z,6.43
2019-04-13T12:51:06.958Z,4.13
2019-04-13T12:53:36.319Z,4.30
2019-04-13T12:56:12.684Z,4.50
2019-04-13T12:58:40.338Z,4.73
2019-04-13T13:01:16.865Z,4.60
2019-04-13T13:03:46.066Z,5.23
2019-04-13T13:06:16.760Z,5.13
2019-04-13T13:08:47.493Z,4.67
2019-04-13T13:11:18.024Z,5.03
2019-04-13T13:13:47.158Z,5.13
2019-04-13T13:16:17.427Z,5.00
2019-04-13T13:18:48.441Z,4.90
2019-04-13T13:21:22.068Z,4.33
2019-04-13T13:23:57.279Z,4.93
2019-04-13T13:26:29.782Z,3.87
2019-04-13T13:29:00.246Z,4.07
2019-04-13T13:31:30.491Z,4.20
2019-04-13T13:34:04.437Z,4.47
2019-04-13T13:36:41.510Z,4.50
2019-04-13T13:39:14.771Z,4.57
2019-04-13T13:41:47.588Z,4.50
2019-04-13T13:44:19.438Z,4.40
2019-04-13T13:46:51.497Z,3.97
2019-04-13T13:49:22.913Z,4.53
2019-04-13T13:51:56.141Z,3.80
2019-04-13T13:54:25.723Z,3.73
2019-04-13T13:57:03.605Z,4.03
2019-04-13T13:59:31.298Z,4.10
2019-04-13T14:02:12.949Z,4.17
2019-04-13T14:04:45.399Z,3.90
2019-04-13T14:07:14.845Z,4.03
2019-04-13T14:10:04.781Z,3.90
2019-04-13T14:12:34.934Z,3.33
2019-04-13T14:15:07.734Z,3.70
2019-04-13T14:17:37.416Z,3.40
2019-04-13T14:20:09.616Z,3.60
2019-04-13T14:22:47.705Z,3.47
2019-04-13T14:25:19.217Z,3.70
2019-04-13T14:27:46.897Z,3.73
2019-04-13T14:30:17.531Z,3.50
2019-04-13T14:32:47.519Z,3.50
2019-04-13T14:35:16.337Z,3.47
2019-04-13T14:37:54.682Z,3.70
2019-04-13T14:40:26.119Z,3.90
2019-04-13T14:43:00.062Z,3.73
2019-04-13T14:45:27.881Z,4.00
2019-04-13T14:47:57.771Z,3.37
2019-04-13T14:50:30.752Z,3.77
2019-04-13T14:53:00.487Z,3.70
2019-04-13T14:55:30.516Z,3.53
2019-04-13T14:58:02.013Z,3.70
2019-04-13T15:00:30.973Z,4.07
2019-04-13T15:02:59.611Z,3.73
2019-04-13T15:05:32.810Z,3.77
2019-04-13T15:08:05.360Z,3.10
2019-04-13T15:10:37.314Z,3.40
2019-04-13T15:13:04.987Z,3.20
2019-04-13T15:15:36.565Z,3.23
2019-04-13T15:18:14.335Z,3.50
2019-04-13T15:20:44.639Z,3.57
2019-04-13T15:23:17.159Z,3.40
2019-04-13T15:25:48.521Z,3.57
2019-04-13T15:28:21.652Z,3.80
2019-04-13T15:30:58.685Z,3.57
2019-04-13T15:33:34.978Z,3.70
2019-04-13T15:36:07.877Z,3.23
2019-04-13T15:38:35.887Z,3.10
2019-04-13T15:41:12.249Z,3.10
2019-04-13T15:43:41.346Z,2.87
2019-04-13T15:46:09.268Z,3.23
2019-04-13T15:48:43.149Z,3.20
2019-04-13T15:51:23.030Z,3.07
2019-04-13T15:53:53.869Z,2.93
2019-04-13T15:56:31.755Z,3.40
2019-04-13T15:59:01.448Z,3.53
2019-04-13T16:01:30.739Z,3.03
2019-04-13T16:03:58.343Z,3.10
2019-04-13T16:06:25.954Z,3.00
2019-04-13T16:09:14.242Z,3.07
2019-04-13T16:11:58.032Z,3.20
2019-04-13T16:14:23.170Z,3.30
2019-04-13T16:16:52.688Z,3.13
2019-04-13T16:19:24.553Z,3.30
2019-04-13T16:21:52.302Z,3.13
2019-04-13T16:24:22.293Z,2.87
2019-04-13T16:27:03.501Z,3.17
2019-04-13T16:29:51.249Z,3.03
2019-04-13T16:32:40.707Z,3.13
2019-04-13T16:35:24.731Z,3.30
2019-04-13T16:38:03.504Z,2.90
2019-04-13T16:40:33.882Z,3.63
2019-04-13T16:43:07.968Z,3.60
2019-04-13T16:45:46.946Z,4.27
2019-04-13T16:48:55.890Z,4.00
2019-04-13T16:51:43.533Z,4.10
2019-04-13T16:54:25.525Z,3.90
2019-04-13T16:57:04.592Z,4.20
2019-04-13T16:59:57.315Z,4.43
2019-04-13T17:02:52.500Z,4.90
2019-04-13T17:05:29.023Z,4.40
2019-04-13T17:07:59.128Z,3.93
2019-04-13T17:10:29.247Z,4.50
2019-04-13T17:13:07.493Z,4.23
2019-04-13T17:15:35.582Z,4.93
2019-04-13T17:18:12.059Z,4.13
2019-04-13T17:21:06.820Z,3.90
2019-04-13T17:23:46.799Z,4.40
2019-04-13T17:26:43.911Z,4.03
2019-04-13T17:29:35.946Z,4.23
2019-04-13T17:32:24.876Z,4.20
2019-04-13T17:34:59.223Z,4.20
2019-04-13T17:37:29.831Z,4.27
2019-04-13T17:40:05.474Z,4.23
2019-04-13T17:43:04.293Z,4.30
2019-04-13T17:45:50.633Z,4.40
2019-04-13T17:48:44.342Z,4.73
2019-04-13T17:51:33.163Z,4.93
2019-04-13T17:54:33.104Z,4.70
2019-04-13T17:57:16.440Z,4.10
2019-04-13T18:00:06.485Z,4.53
2019-04-13T18:02:57.337Z,4.67
2019-04-13T18:05:56.568Z,4.23
2019-04-13T18:08:45.689Z,4.27
2019-04-13T18:11:40.474Z,4.00
2019-04-13T18:14:26.054Z,3.90
2019-04-13T18:17:05.125Z,4.37
2019-04-13T18:19:33.473Z,4.40
2019-04-13T18:22:07.963Z,4.10
2019-04-13T18:24:38.643Z,4.20
2019-04-13T18:27:15.100Z,4.37
2019-04-13T18:29:58.261Z,4.53
2019-04-13T18:32:19.462Z,3.90
2019-04-13T18:34:53.967Z,4.53
2019-04-13T18:37:28.548Z,4.77
2019-04-13T18:39:57.766Z,4.70
2019-04-13T18:42:32.567Z,4.40
2019-04-13T18:45:03.933Z,4.63
2019-04-13T18:47:37.213Z,4.63
2019-04-13T18:50:06.020Z,5.10
2019-04-13T18:52:41.314Z,4.67
2019-04-13T18:55:12.394Z,4.40
2019-04-13T18:57:43.570Z,4.40
2019-04-13T19:00:14.816Z,5.13
2019-04-13T19:02:44.216Z,4.60
2019-04-13T19:05:16.303Z,4.40
2019-04-13T19:07:45.789Z,4.50
2019-04-13T19:10:15.945Z,4.37
2019-04-13T19:12:43.599Z,4.07
2019-04-13T19:15:21.356Z,4.33
2019-04-13T19:17:48.993Z,4.27
2019-04-13T19:20:37.804Z,3.83
2019-04-13T19:23:09.181Z,4.00
2019-04-13T19:25:38.231Z,4.57
2019-04-13T19:28:05.863Z,5.00
2019-04-13T19:30:36.401Z,5.13
2019-04-13T19:33:09.344Z,5.23
2019-04-13T19:35:48.987Z,4.93
2019-04-13T19:38:25.789Z,4.97
2019-04-13T19:40:59.052Z,5.20
2019-04-13T19:43:26.692Z,4.50
2019-04-13T19:45:55.606Z,4.90
2019-04-13T19:48:23.506Z,4.73
2019-04-13T19:50:53.969Z,5.07
2019-04-13T19:53:48.817Z,4.83
2019-04-13T19:56:22.016Z,4.40
2019-04-13T19:58:55.469Z,5.10
2019-04-13T20:01:28.585Z,5.00
2019-04-13T20:04:00.322Z,5.27
2019-04-13T20:06:36.020Z,5.17
2019-04-13T20:09:09.610Z,5.60
2019-04-13T20:11:43.238Z,6.27
2019-04-13T20:14:16.396Z,5.93
2019-04-13T20:16:57.901Z,5.53
2019-04-13T20:19:36.499Z,5.20
2019-04-13T20:22:04.154Z,5.60
2019-04-13T20:24:34.057Z,5.77
2019-04-13T20:27:15.185Z,6.30
2019-04-13T20:29:51.193Z,6.10
2019-04-13T20:32:25.818Z,6.10
2019-04-13T20:34:56.256Z,6.67
2019-04-13T20:37:25.684Z,7.03
2019-04-13T20:40:05.640Z,6.57
2019-04-13T20:42:35.421Z,7.20
2019-04-13T20:45:06.953Z,6.73
2019-04-13T20:47:39.412Z,6.40
2019-04-13T20:50:07.297Z,6.60
2019-04-13T20:52:35.291Z,6.47
2019-04-13T20:55:04.875Z,7.07
2019-04-13T20:57:36.933Z,7.50
2019-04-13T21:00:11.784Z,7.13
2019-04-13T21:02:42.642Z,5.90
2019-04-13T21:05:10.264Z,6.53
2019-04-13T21:07:44.481Z,5.73
2019-04-13T21:10:15.486Z,5.97
2019-04-13T21:12:43.181Z,6.90
2019-04-13T21:15:20.322Z,6.53
2019-04-13T21:17:48.599Z,7.00
2019-04-13T21:20:19.343Z,5.97
2019-04-13T21:22:47.167Z,6.37
2019-04-13T21:25:18.564Z,6.37
2019-04-13T21:27:46.710Z,6.47
2019-04-13T21:30:17.059Z,6.00
2019-04-13T21:32:46.572Z,6.43
2019-04-13T21:35:16.489Z,5.93
2019-04-13T21:37:46.999Z,6.27
2019-04-13T21:40:17.177Z,6.17
2019-04-13T21:42:49.017Z,6.67
2019-04-13T21:45:21.375Z,6.70
2019-04-13T21:47:55.516Z,6.10
2019-04-13T21:50:41.621Z,6.63
2019-04-13T21:53:22.606Z,6.80
2019-04-13T21:55:53.010Z,6.13
2019-04-13T21:58:23.523Z,7.07
2019-04-13T22:01:14.876Z,6.60
2019-04-13T22:03:44.774Z,6.37
2019-04-13T22:06:14.646Z,7.20
2019-04-13T22:08:44.894Z,6.50
2019-04-13T22:11:12.752Z,6.97
2019-04-13T22:13:40.427Z,6.97
2019-04-13T22:16:08.172Z,7.37
2019-04-13T22:18:38.665Z,7.27
2019-04-13T22:21:11.171Z,7.00
2019-04-13T22:23:38.955Z,6.40
2019-04-13T22:26:09.060Z,7.53
2019-04-13T22:28:45.340Z,7.47
2019-04-13T22:31:24.493Z,6.80
2019-04-13T22:34:01.085Z,7.60
2019-04-13T22:36:31.784Z,7.37
2019-04-13T22:39:01.918Z,6.33
2019-04-13T22:41:33.253Z,7.30
2019-04-13T22:44:09.748Z,7.77
2019-04-13T22:46:37.336Z,7.80
2019-04-13T22:49:40.573Z,7.43
2019-04-13T22:52:27.933Z,7.53
2019-04-13T22:55:05.768Z,7.80
2019-04-13T22:57:45.650Z,7.17
2019-04-13T23:00:17.277Z,7.37
2019-04-13T23:02:49.672Z,7.73
2019-04-13T23:05:20.237Z,7.17
2019-04-13T23:07:52.369Z,7.70
2019-04-13T23:10:22.428Z,7.80
2019-04-13T23:12:50.749Z,7.70
2019-04-13T23:15:24.320Z,7.80
2019-04-13T23:17:48.423Z,7.90
2019-04-13T23:20:17.003Z,7.80
2019-04-13T23:22:45.318Z,7.83
2019-04-13T23:25:13.689Z,8.03
2019-04-13T23:27:41.637Z,8.37
2019-04-13T23:30:11.660Z,8.80
2019-04-13T23:32:40.174Z,7.60
2019-04-13T23:35:08.366Z,8.07
2019-04-13T23:37:36.599Z,9.07
2019-04-13T23:40:07.529Z,9.47
2019-04-13T23:42:35.130Z,8.70
2019-04-13T23:45:10.782Z,8.67
2019-04-13T23:47:32.064Z,9.00
2019-04-13T23:50:01.469Z,8.40
2019-04-13T23:52:30.299Z,9.83
2019-04-13T23:54:58.636Z,8.23
2019-04-13T23:57:33.550Z,9.27
